createdAt,value
2022-11-17T00:02:06.809Z,71.45
2022-11-17T00:04:33.507Z,75.68
2022-11-17T00:07:00.721Z,86.57
2022-11-17T00:09:27.493Z,77.38
2022-11-17T00:12:12.619Z,80.68
2022-11-17T00:14:41.008Z,78.78
2022-11-17T00:17:10.258Z,78.30
2022-11-17T00:22:21.947Z,73.88
2022-11-17T00:24:49.421Z,75.22
2022-11-17T00:27:16.698Z,81.45
2022-11-17T00:29:43.359Z,73.00
2022-11-17T00:32:32.768Z,72.38
2022-11-17T00:34:59.638Z,76.55
2022-11-17T00:37:27.518Z,74.00
2022-11-17T00:39:59.268Z,69.72
2022-11-17T00:42:27.295Z,73.97
2022-11-17T00:44:53.918Z,74.50
2022-11-17T00:47:20.563Z,74.20
2022-11-17T00:49:47.267Z,71.78
2022-11-17T00:52:13.908Z,70.95
2022-11-17T00:54:40.571Z,72.95
2022-11-17T00:57:07.177Z,67.97
2022-11-17T00:59:33.811Z,66.28
2022-11-17T01:02:00.673Z,81.57
2022-11-17T01:04:27.406Z,71.07
2022-11-17T01:06:54.114Z,74.95
2022-11-17T01:09:22.904Z,80.88
2022-11-17T01:11:50.888Z,79.05
2022-11-17T01:14:21.633Z,73.65
2022-11-17T01:16:48.268Z,71.80
2022-11-17T01:19:15.574Z,77.03
2022-11-17T01:21:42.564Z,73.05
2022-11-17T01:24:11.174Z,68.40
2022-11-17T01:26:38.712Z,70.18
2022-11-17T01:29:05.743Z,72.82
2022-11-17T01:31:38.303Z,63.63
2022-11-17T01:34:05.789Z,72.82
2022-11-17T01:36:53.348Z,72.25
2022-11-17T01:39:20.415Z,67.78
2022-11-17T01:41:47.071Z,67.38
2022-11-17T01:44:51.069Z,71.65
2022-11-17T01:47:27.816Z,69.80
2022-11-17T01:49:57.899Z,67.30
2022-11-17T01:52:25.443Z,66.47
2022-11-17T01:54:53.695Z,63.95
2022-11-17T01:57:28.074Z,70.25
2022-11-17T01:59:58.415Z,68.10
2022-11-17T02:02:25.165Z,69.78
2022-11-17T02:05:31.721Z,66.47
2022-11-17T02:07:59.967Z,63.55
2022-11-17T02:10:28.028Z,68.72
2022-11-17T02:12:55.203Z,63.45
2022-11-17T02:15:22.434Z,75.47
2022-11-17T02:17:49.674Z,69.15
2022-11-17T02:20:42.496Z,67.30
2022-11-17T02:23:17.986Z,60.97
2022-11-17T02:26:12.376Z,62.90
2022-11-17T02:28:50.528Z,63.90
2022-11-17T02:31:37.343Z,67.05
2022-11-17T02:34:11.829Z,73.35
2022-11-17T02:37:07.530Z,65.15
2022-11-17T02:39:40.579Z,69.50
2022-11-17T02:42:47.248Z,67.78
2022-11-17T02:45:18.059Z,68.68
2022-11-17T02:47:46.772Z,65.00
2022-11-17T02:50:14.445Z,69.90
2022-11-17T02:52:41.079Z,71.15
2022-11-17T02:55:10.202Z,68.80
2022-11-17T02:57:39.996Z,69.50
2022-11-17T03:00:11.280Z,70.28
2022-11-17T03:02:37.895Z,65.72
2022-11-17T03:05:14.802Z,69.97
2022-11-17T03:08:15.411Z,65.07
2022-11-17T03:11:00.237Z,66.05
2022-11-17T03:13:33.491Z,61.70
2022-11-17T03:16:23.608Z,72.18
2022-11-17T03:19:19.392Z,66.20
2022-11-17T03:22:06.924Z,63.45
2022-11-17T03:24:43.592Z,67.82
2022-11-17T03:27:19.255Z,63.25
2022-11-17T03:29:49.527Z,64.05
2022-11-17T03:32:17.225Z,56.67
2022-11-17T03:34:55.666Z,60.92
2022-11-17T03:37:23.631Z,62.83
2022-11-17T03:39:53.239Z,55.83
2022-11-17T03:42:31.079Z,66.00
2022-11-17T03:45:02.607Z,62.28
2022-11-17T03:47:30.506Z,63.50
2022-11-17T03:50:15.211Z,58.30
2022-11-17T03:52:42.508Z,59.85
2022-11-17T03:55:09.406Z,59.10
2022-11-17T03:58:09.434Z,62.78
2022-11-17T04:03:02.503Z,58.03
2022-11-17T04:05:29.167Z,57.60
2022-11-17T04:07:55.787Z,64.93
2022-11-17T04:10:27.792Z,64.22
2022-11-17T04:13:13.402Z,63.60
2022-11-17T04:15:59.271Z,59.53
2022-11-17T04:18:27.156Z,62.40
2022-11-17T04:20:55.684Z,65.03
2022-11-17T04:23:23.481Z,65.80
2022-11-17T04:26:10.576Z,68.88
2022-11-17T04:28:40.761Z,68.70
2022-11-17T04:31:07.383Z,75.97
2022-11-17T04:33:34.795Z,67.88
2022-11-17T04:36:02.451Z,74.30
2022-11-17T04:38:29.223Z,70.15
2022-11-17T04:41:25.489Z,58.30
2022-11-17T04:43:52.287Z,59.97
2022-11-17T04:46:20.001Z,49.85
2022-11-17T04:48:47.783Z,58.50
2022-11-17T04:51:15.427Z,58.35
2022-11-17T04:53:42.819Z,56.08
2022-11-17T04:56:10.115Z,69.93
2022-11-17T04:58:36.947Z,60.70
2022-11-17T05:01:13.142Z,64.82
2022-11-17T05:03:45.480Z,65.07
2022-11-17T05:06:17.582Z,65.03
2022-11-17T05:08:44.905Z,68.43
2022-11-17T05:11:31.328Z,66.47
2022-11-17T05:13:58.133Z,68.00
2022-11-17T05:16:43.624Z,67.93
2022-11-17T05:19:17.227Z,74.30
2022-11-17T05:21:43.877Z,74.38
2022-11-17T05:24:10.648Z,81.88
2022-11-17T05:26:38.034Z,74.38
2022-11-17T05:29:06.138Z,65.47
2022-11-17T05:31:33.536Z,67.55
2022-11-17T05:34:00.780Z,69.82
2022-11-17T05:36:27.987Z,68.45
2022-11-17T05:38:55.363Z,86.20
2022-11-17T05:41:23.184Z,86.88
2022-11-17T05:43:50.646Z,62.08
2022-11-17T05:46:20.899Z,65.43
2022-11-17T05:48:52.567Z,61.00
2022-11-17T05:51:21.339Z,54.85
2022-11-17T05:53:48.210Z,57.17
2022-11-17T05:56:33.511Z,48.28
2022-11-17T05:59:12.188Z,54.28
2022-11-17T06:01:42.115Z,71.85
2022-11-17T06:04:09.014Z,74.95
2022-11-17T06:06:36.928Z,59.35
2022-11-17T06:09:04.319Z,60.40
2022-11-17T06:11:30.955Z,60.55
2022-11-17T06:13:57.601Z,58.60
2022-11-17T06:16:26.495Z,52.17
2022-11-17T06:18:59.554Z,65.05
2022-11-17T06:21:26.198Z,64.60
2022-11-17T06:23:52.895Z,66.97
2022-11-17T06:26:19.701Z,75.75
2022-11-17T06:28:47.637Z,87.00
2022-11-17T06:31:14.827Z,75.45
2022-11-17T06:33:41.658Z,67.72
2022-11-17T06:36:08.709Z,62.58
2022-11-17T06:38:36.334Z,70.32
2022-11-17T06:41:08.913Z,67.95
2022-11-17T06:43:38.750Z,89.72
2022-11-17T06:46:05.886Z,101.20
2022-11-17T06:48:35.835Z,63.03
2022-11-17T06:51:04.697Z,56.22
2022-11-17T06:53:33.461Z,51.42
2022-11-17T06:58:39.897Z,36.25
2022-11-17T07:01:08.905Z,46.95
2022-11-17T07:06:05.220Z,66.78
2022-11-17T07:08:32.005Z,30.58
2022-11-17T07:11:06.325Z,27.35
2022-11-17T07:13:33.807Z,31.40
2022-11-17T07:16:26.572Z,30.17
2022-11-17T07:18:53.329Z,26.25
2022-11-17T07:21:20.005Z,25.25
2022-11-17T07:23:46.755Z,22.45
2022-11-17T07:26:14.439Z,29.75
2022-11-17T07:28:41.307Z,29.00
2022-11-17T07:31:09.156Z,28.75
2022-11-17T07:33:36.473Z,28.10
2022-11-17T07:36:05.658Z,26.02
2022-11-17T07:38:34.242Z,29.30
2022-11-17T07:41:01.413Z,28.98
2022-11-17T07:43:28.563Z,29.15
2022-11-17T07:45:55.314Z,25.52
2022-11-17T07:48:22.044Z,24.48
2022-11-17T07:50:49.147Z,31.05
2022-11-17T07:53:15.837Z,28.10
2022-11-17T07:55:42.521Z,29.83
2022-11-17T07:58:09.185Z,25.17
2022-11-17T08:00:36.845Z,31.83
2022-11-17T08:03:04.845Z,35.38
2022-11-17T08:05:39.889Z,30.70
2022-11-17T08:08:10.011Z,41.25
2022-11-17T08:10:36.789Z,38.13
2022-11-17T08:13:03.569Z,31.00
2022-11-17T08:15:30.878Z,79.18
2022-11-17T08:17:59.534Z,32.65
2022-11-17T08:20:27.896Z,28.98
2022-11-17T08:22:55.130Z,30.17
2022-11-17T08:25:23.862Z,21.73
2022-11-17T08:27:52.208Z,26.40
2022-11-17T08:30:20.604Z,26.23
2022-11-17T08:32:52.362Z,115.00
2022-11-17T08:35:21.604Z,78.55
2022-11-17T08:37:48.366Z,49.65
2022-11-17T08:40:15.383Z,38.65
2022-11-17T08:42:42.040Z,36.30
2022-11-17T08:45:10.121Z,22.95
2022-11-17T08:47:37.673Z,23.25
2022-11-17T08:50:06.309Z,31.92
2022-11-17T08:52:33.154Z,22.63
2022-11-17T08:55:00.029Z,28.35
2022-11-17T08:57:26.936Z,31.30
2022-11-17T08:59:53.628Z,34.38
2022-11-17T09:02:20.300Z,24.98
2022-11-17T09:04:47.808Z,22.35
2022-11-17T09:07:14.631Z,27.05
2022-11-17T09:09:41.497Z,27.60
2022-11-17T09:12:08.289Z,33.97
2022-11-17T09:14:35.175Z,32.05
2022-11-17T09:17:01.881Z,26.08
2022-11-17T09:19:28.763Z,30.23
2022-11-17T09:21:55.817Z,27.42
2022-11-17T09:24:22.524Z,33.45
2022-11-17T09:26:49.302Z,29.58
2022-11-17T09:29:15.963Z,25.40
2022-11-17T09:31:42.705Z,30.98
2022-11-17T09:34:09.478Z,30.55
2022-11-17T09:36:36.854Z,24.15
2022-11-17T09:39:04.040Z,28.30
2022-11-17T09:41:42.567Z,27.15
2022-11-17T09:44:17.847Z,32.92
2022-11-17T09:46:56.446Z,17.60
2022-11-17T09:49:55.252Z,23.40
2022-11-17T09:52:48.217Z,19.58
2022-11-17T09:55:21.795Z,16.42
2022-11-17T09:58:14.121Z,23.10
2022-11-17T10:00:42.898Z,29.70
2022-11-17T10:03:18.769Z,23.52
2022-11-17T10:05:45.467Z,18.90
2022-11-17T10:08:17.185Z,17.58
2022-11-17T10:10:51.718Z,21.05
2022-11-17T10:13:28.488Z,16.42
2022-11-17T10:15:58.896Z,17.25
2022-11-17T10:18:26.060Z,20.23
2022-11-17T10:20:52.840Z,17.08
2022-11-17T10:23:20.414Z,16.65
2022-11-17T10:25:49.638Z,19.48
2022-11-17T10:28:42.698Z,18.25
2022-11-17T10:31:13.657Z,18.35
2022-11-17T10:33:45.496Z,19.35
2022-11-17T10:36:22.496Z,16.00
2022-11-17T10:38:52.032Z,19.23
2022-11-17T10:41:25.339Z,19.08
2022-11-17T10:43:58.809Z,18.45
2022-11-17T10:46:25.653Z,16.10
2022-11-17T10:48:56.861Z,19.17
2022-11-17T10:51:26.665Z,16.05
2022-11-17T10:54:15.794Z,15.60
2022-11-17T10:56:45.750Z,17.52
2022-11-17T10:59:16.800Z,15.60
2022-11-17T11:01:45.776Z,17.52
2022-11-17T11:07:12.396Z,21.50
2022-11-17T11:09:52.094Z,17.65
2022-11-17T11:12:46.987Z,16.40
2022-11-17T11:15:22.248Z,16.25
2022-11-17T11:17:49.930Z,17.30
2022-11-17T11:20:19.961Z,23.88
2022-11-17T11:23:34.324Z,19.85
2022-11-17T11:26:17.900Z,16.20
2022-11-17T11:29:03.686Z,24.17
2022-11-17T11:31:36.265Z,18.70
2022-11-17T11:34:08.521Z,20.65
2022-11-17T11:37:13.703Z,22.00
2022-11-17T11:39:59.057Z,24.08
2022-11-17T11:42:47.193Z,23.63
2022-11-17T11:45:18.440Z,23.27
2022-11-17T11:47:48.178Z,27.52
2022-11-17T11:50:14.780Z,31.17
2022-11-17T11:52:46.703Z,69.57
2022-11-17T11:55:22.093Z,39.08
2022-11-17T11:57:55.376Z,52.15
2022-11-17T12:00:22.252Z,53.65
2022-11-17T12:02:58.000Z,41.30
2022-11-17T12:05:59.097Z,31.75
2022-11-17T12:08:42.205Z,36.67
2022-11-17T12:11:33.187Z,52.72
2022-11-17T12:14:00.449Z,44.67
2022-11-17T12:16:35.196Z,31.77
2022-11-17T12:19:02.534Z,28.33
2022-11-17T12:21:29.730Z,28.13
2022-11-17T12:24:08.714Z,32.60
2022-11-17T12:26:36.093Z,28.50
2022-11-17T12:29:21.254Z,27.92
2022-11-17T12:31:55.650Z,33.20
2022-11-17T12:34:31.567Z,25.08
2022-11-17T12:37:15.969Z,28.05
2022-11-17T12:40:05.970Z,28.42
2022-11-17T12:42:33.801Z,32.40
2022-11-17T12:45:11.614Z,27.92
2022-11-17T12:47:59.112Z,32.95
2022-11-17T12:50:48.685Z,29.48
2022-11-17T12:53:22.395Z,29.83
2022-11-17T12:55:55.028Z,37.38
2022-11-17T12:58:46.357Z,26.00
2022-11-17T13:01:21.650Z,36.72
2022-11-17T13:04:10.306Z,28.02
2022-11-17T13:06:37.381Z,29.80
2022-11-17T13:09:12.087Z,25.98
2022-11-17T13:11:38.833Z,40.90
2022-11-17T13:14:16.521Z,27.10
2022-11-17T13:16:50.432Z,34.85
2022-11-17T13:19:37.026Z,25.02
2022-11-17T13:22:11.354Z,51.15
2022-11-17T13:24:39.788Z,85.45
2022-11-17T13:27:17.037Z,21.20
2022-11-17T13:29:43.712Z,22.25
2022-11-17T13:32:22.085Z,20.05
2022-11-17T13:34:54.033Z,18.95
2022-11-17T13:37:23.661Z,23.98
2022-11-17T13:40:19.889Z,16.48
2022-11-17T13:42:46.973Z,18.30
2022-11-17T13:45:15.424Z,18.23
2022-11-17T13:47:47.265Z,33.38
2022-11-17T13:50:32.093Z,34.50
2022-11-17T13:53:10.337Z,25.08
2022-11-17T13:55:37.171Z,43.13
2022-11-17T13:58:22.221Z,29.30
2022-11-17T14:00:52.817Z,27.33
2022-11-17T14:03:45.527Z,22.40
2022-11-17T14:06:13.689Z,24.25
2022-11-17T14:08:42.117Z,21.70
2022-11-17T14:11:14.327Z,26.85
2022-11-17T14:13:58.818Z,24.15
2022-11-17T14:16:31.249Z,33.38
2022-11-17T14:19:03.686Z,33.50
2022-11-17T14:21:30.925Z,39.63
2022-11-17T14:24:06.828Z,29.83
2022-11-17T14:26:33.572Z,32.25
2022-11-17T14:29:02.308Z,32.97
2022-11-17T14:31:30.618Z,29.33
2022-11-17T14:33:57.761Z,40.70
2022-11-17T14:36:24.740Z,33.75
2022-11-17T14:38:51.792Z,36.97
2022-11-17T14:41:19.167Z,40.70
2022-11-17T14:43:46.019Z,42.80
2022-11-17T14:46:32.912Z,41.85
2022-11-17T14:48:59.846Z,36.20
2022-11-17T14:51:26.545Z,43.72
2022-11-17T14:53:54.244Z,37.17
2022-11-17T14:56:23.818Z,40.08
2022-11-17T14:58:58.653Z,30.02
2022-11-17T15:01:29.376Z,35.40
2022-11-17T15:03:58.400Z,26.42
2022-11-17T15:06:25.707Z,30.83
2022-11-17T15:09:07.994Z,34.75
2022-11-17T15:11:39.274Z,29.50
2022-11-17T15:14:06.961Z,26.52
2022-11-17T15:16:33.867Z,39.25
2022-11-17T15:19:00.517Z,26.08
2022-11-17T15:21:27.192Z,35.45
2022-11-17T15:23:53.950Z,23.85
2022-11-17T15:26:23.450Z,24.05
2022-11-17T15:28:50.103Z,27.20
2022-11-17T15:31:19.299Z,21.40
2022-11-17T15:33:47.513Z,19.55
2022-11-17T15:36:16.709Z,32.15
2022-11-17T15:41:11.488Z,30.17
2022-11-17T15:43:39.618Z,50.90
2022-11-17T15:46:08.325Z,63.50
2022-11-17T15:48:38.909Z,37.80
2022-11-17T15:51:06.380Z,38.58
2022-11-17T15:53:36.818Z,29.63
2022-11-17T15:56:04.872Z,20.73
2022-11-17T15:58:32.106Z,65.05
2022-11-17T16:01:09.750Z,40.80
2022-11-17T16:03:36.623Z,80.28
2022-11-17T16:06:03.944Z,22.80
2022-11-17T16:08:31.614Z,31.88
2022-11-17T16:10:58.437Z,21.50
2022-11-17T16:13:25.120Z,20.77
2022-11-17T16:15:52.581Z,15.75
2022-11-17T16:18:19.596Z,17.63
2022-11-17T16:20:46.484Z,21.98
2022-11-17T16:23:14.394Z,17.20
2022-11-17T16:25:41.852Z,20.45
2022-11-17T16:28:09.076Z,44.42
2022-11-17T16:30:36.376Z,22.73
2022-11-17T16:33:14.006Z,32.58
2022-11-17T16:35:41.286Z,29.55
2022-11-17T16:38:12.600Z,25.33
2022-11-17T16:40:39.995Z,44.90
2022-11-17T16:43:06.887Z,62.95
2022-11-17T16:45:42.829Z,54.00
2022-11-17T16:48:09.694Z,39.75
2022-11-17T16:50:37.612Z,36.53
2022-11-17T16:53:04.830Z,44.63
2022-11-17T16:55:38.292Z,35.55
2022-11-17T16:58:06.284Z,37.92
2022-11-17T17:00:34.918Z,50.22
2022-11-17T17:03:02.381Z,49.00
2022-11-17T17:05:34.516Z,64.55
2022-11-17T17:08:01.238Z,57.67
2022-11-17T17:10:27.885Z,43.72
2022-11-17T17:12:54.570Z,41.35
2022-11-17T17:15:21.220Z,62.25
2022-11-17T17:17:47.929Z,48.92
2022-11-17T17:20:14.897Z,51.70
2022-11-17T17:22:41.528Z,39.70
2022-11-17T17:25:09.424Z,44.13
2022-11-17T17:27:36.171Z,36.75
2022-11-17T17:30:02.937Z,32.28
2022-11-17T17:32:29.580Z,40.83
2022-11-17T17:34:56.284Z,33.42
2022-11-17T17:37:22.973Z,53.80
2022-11-17T17:39:49.613Z,35.55
2022-11-17T17:42:16.393Z,35.63
2022-11-17T17:44:43.030Z,39.42
2022-11-17T17:47:09.698Z,57.97
2022-11-17T17:49:36.452Z,46.65
2022-11-17T17:52:03.175Z,44.60
2022-11-17T17:54:29.832Z,36.33
2022-11-17T17:56:57.825Z,49.38
2022-11-17T17:59:24.493Z,33.63
2022-11-17T18:01:51.584Z,40.40
2022-11-17T18:04:18.287Z,31.98
2022-11-17T18:06:47.501Z,26.98
2022-11-17T18:09:15.716Z,25.05
2022-11-17T18:11:46.092Z,32.30
2022-11-17T18:14:13.474Z,27.05
2022-11-17T18:16:40.853Z,31.33
2022-11-17T18:19:09.105Z,34.25
2022-11-17T18:21:36.268Z,23.23
2022-11-17T18:24:03.202Z,26.55
2022-11-17T18:26:32.098Z,30.33
2022-11-17T18:29:01.453Z,32.45
2022-11-17T18:31:29.860Z,28.92
2022-11-17T18:34:01.848Z,28.33
2022-11-17T18:36:28.714Z,37.75
2022-11-17T18:38:56.726Z,59.67
2022-11-17T18:41:23.809Z,62.53
2022-11-17T18:43:50.980Z,36.88
2022-11-17T18:46:19.768Z,41.35
2022-11-17T18:48:47.997Z,44.42
2022-11-17T18:51:20.991Z,38.40
2022-11-17T18:53:53.198Z,35.13
2022-11-17T18:56:25.559Z,31.80
2022-11-17T18:58:52.733Z,27.70
2022-11-17T19:01:24.744Z,35.58
2022-11-17T19:03:53.305Z,30.45
2022-11-17T19:06:21.301Z,26.85
2022-11-17T19:08:48.605Z,28.48
2022-11-17T19:11:17.184Z,30.00
2022-11-17T19:13:44.628Z,32.33
2022-11-17T19:16:13.957Z,52.65
2022-11-17T19:18:41.197Z,35.17
2022-11-17T19:21:09.866Z,37.88
2022-11-17T19:23:38.473Z,34.22
2022-11-17T19:26:06.680Z,36.78
2022-11-17T19:28:33.505Z,34.92
2022-11-17T19:31:02.129Z,26.80
2022-11-17T19:33:30.442Z,32.20
2022-11-17T19:35:57.116Z,37.25
2022-11-17T19:38:23.758Z,35.20
2022-11-17T19:40:50.449Z,37.10
2022-11-17T19:43:19.225Z,32.63
2022-11-17T19:45:45.950Z,72.85
2022-11-17T19:48:12.604Z,93.93
2022-11-17T19:50:39.352Z,53.60
2022-11-17T19:53:05.969Z,47.15
2022-11-17T19:55:34.479Z,49.55
2022-11-17T19:58:01.108Z,28.58
2022-11-17T20:00:27.813Z,33.13
2022-11-17T20:02:54.429Z,30.83
2022-11-17T20:05:21.110Z,36.55
2022-11-17T20:07:47.748Z,31.88
2022-11-17T20:10:14.501Z,28.52
2022-11-17T20:12:43.406Z,33.60
2022-11-17T20:15:21.965Z,42.72
2022-11-17T20:17:56.940Z,37.25
2022-11-17T20:20:23.664Z,37.63
2022-11-17T20:22:50.683Z,25.95
2022-11-17T20:25:17.369Z,26.25
2022-11-17T20:27:44.130Z,29.80
2022-11-17T20:30:15.218Z,25.63
2022-11-17T20:32:42.177Z,23.30
2022-11-17T20:35:09.177Z,30.95
2022-11-17T20:37:35.840Z,33.75
2022-11-17T20:40:02.499Z,26.15
2022-11-17T20:42:29.203Z,26.88
2022-11-17T20:44:55.840Z,25.77
2022-11-17T20:47:27.496Z,25.08
2022-11-17T20:49:55.293Z,17.77
2022-11-17T20:52:21.960Z,16.70
2022-11-17T20:54:48.696Z,21.98
2022-11-17T20:57:15.361Z,19.17
2022-11-17T20:59:42.007Z,20.52
2022-11-17T21:02:10.940Z,18.48
2022-11-17T21:04:37.622Z,20.15
2022-11-17T21:07:04.682Z,18.52
2022-11-17T21:09:31.358Z,17.83
2022-11-17T21:11:58.078Z,21.92
2022-11-17T21:14:26.561Z,15.60
2022-11-17T21:16:54.574Z,17.45
2022-11-17T21:19:21.596Z,20.88
2022-11-17T21:21:50.439Z,18.75
2022-11-17T21:24:17.381Z,16.13
2022-11-17T21:26:44.125Z,20.95
2022-11-17T21:29:10.807Z,19.25
2022-11-17T21:31:37.607Z,18.70
2022-11-17T21:34:06.604Z,15.35
2022-11-17T21:36:34.587Z,15.65
2022-11-17T21:39:01.498Z,16.15
2022-11-17T21:41:30.400Z,16.25
2022-11-17T21:44:02.012Z,13.32
2022-11-17T21:46:34.703Z,15.60
2022-11-17T21:49:01.620Z,15.75
2022-11-17T21:51:33.885Z,11.95
2022-11-17T21:54:02.832Z,11.40
2022-11-17T21:56:29.992Z,17.88
2022-11-17T21:59:01.387Z,16.13
2022-11-17T22:01:29.365Z,10.32
2022-11-17T22:03:56.137Z,15.57
2022-11-17T22:06:23.857Z,10.52
2022-11-17T22:08:50.872Z,13.43
2022-11-17T22:11:35.576Z,9.90
2022-11-17T22:14:15.604Z,16.77
2022-11-17T22:16:47.591Z,17.05
2022-11-17T22:19:16.431Z,10.98
2022-11-17T22:21:43.991Z,9.80
2022-11-17T22:24:12.008Z,10.82
2022-11-17T22:26:41.169Z,11.68
2022-11-17T22:29:14.321Z,13.30
2022-11-17T22:31:41.516Z,12.30
2022-11-17T22:34:08.631Z,10.57
2022-11-17T22:36:35.280Z,10.93
2022-11-17T22:39:02.089Z,10.63
2022-11-17T22:41:28.729Z,13.02
2022-11-17T22:43:56.800Z,10.65
2022-11-17T22:46:25.662Z,10.68
2022-11-17T22:48:52.844Z,9.50
2022-11-17T22:51:38.434Z,10.75
2022-11-17T22:54:06.330Z,10.77
2022-11-17T22:56:33.413Z,10.38
2022-11-17T22:59:00.258Z,10.45
2022-11-17T23:01:27.564Z,9.60
2022-11-17T23:03:54.315Z,10.23
2022-11-17T23:06:22.720Z,11.23
2022-11-17T23:08:49.753Z,9.77
2022-11-17T23:11:35.995Z,11.65
2022-11-17T23:14:03.297Z,9.43
2022-11-17T23:16:30.136Z,9.55
2022-11-17T23:18:57.035Z,9.82
2022-11-17T23:21:24.140Z,9.63
2022-11-17T23:23:50.872Z,9.68
2022-11-17T23:26:17.571Z,11.98
2022-11-17T23:28:44.297Z,9.90
2022-11-17T23:31:14.026Z,12.35
2022-11-17T23:33:42.567Z,10.00
2022-11-17T23:36:20.584Z,10.20
2022-11-17T23:38:48.033Z,9.38
2022-11-17T23:41:16.404Z,10.02
2022-11-17T23:43:43.480Z,10.15
2022-11-17T23:46:13.194Z,11.25
2022-11-17T23:48:40.643Z,12.60
2022-11-17T23:51:09.348Z,11.10
2022-11-17T23:53:36.098Z,10.60
2022-11-17T23:56:03.937Z,9.13
2022-11-17T23:58:31.155Z,10.52
